sensor_id;sensor_type;location;lat;lon;timestamp;temperature;humidity
10411;DHT22;5251;52.112;8.606;2024-01-30T00:02:16;7.20;95.60
10411;DHT22;5251;52.112;8.606;2024-01-30T00:04:42;7.10;95.50
10411;DHT22;5251;52.112;8.606;2024-01-30T00:07:07;7.10;95.60
10411;DHT22;5251;52.112;8.606;2024-01-30T00:09:33;7.10;95.50
10411;DHT22;5251;52.112;8.606;2024-01-30T00:11:59;7.10;95.60
10411;DHT22;5251;52.112;8.606;2024-01-30T00:14:24;7.10;95.50
10411;DHT22;5251;52.112;8.606;2024-01-30T00:16:53;7.10;95.60
10411;DHT22;5251;52.112;8.606;2024-01-30T00:19:19;7.10;95.70
10411;DHT22;5251;52.112;8.606;2024-01-30T00:21:44;7.10;95.60
10411;DHT22;5251;52.112;8.606;2024-01-30T00:24:10;7.00;95.60
10411;DHT22;5251;52.112;8.606;2024-01-30T00:26:35;7.00;96.00
10411;DHT22;5251;52.112;8.606;2024-01-30T00:29:01;7.00;95.70
10411;DHT22;5251;52.112;8.606;2024-01-30T00:31:27;7.00;95.70
10411;DHT22;5251;52.112;8.606;2024-01-30T00:33:52;7.00;95.80
10411;DHT22;5251;52.112;8.606;2024-01-30T00:36:18;7.00;95.80
10411;DHT22;5251;52.112;8.606;2024-01-30T00:38:44;7.00;95.80
10411;DHT22;5251;52.112;8.606;2024-01-30T00:41:09;7.00;95.80
10411;DHT22;5251;52.112;8.606;2024-01-30T00:43:35;7.00;95.80
10411;DHT22;5251;52.112;8.606;2024-01-30T00:46:01;7.00;95.90
10411;DHT22;5251;52.112;8.606;2024-01-30T00:48:27;7.00;95.90
10411;DHT22;5251;52.112;8.606;2024-01-30T00:50:52;7.00;96.10
10411;DHT22;5251;52.112;8.606;2024-01-30T00:53:18;7.00;96.10
10411;DHT22;5251;52.112;8.606;2024-01-30T00:55:44;7.00;96.10
10411;DHT22;5251;52.112;8.606;2024-01-30T00:58:09;7.00;96.10
10411;DHT22;5251;52.112;8.606;2024-01-30T01:00:35;7.00;96.10
10411;DHT22;5251;52.112;8.606;2024-01-30T01:03:01;7.00;96.10
10411;DHT22;5251;52.112;8.606;2024-01-30T01:05:27;7.00;96.10
10411;DHT22;5251;52.112;8.606;2024-01-30T01:07:52;7.00;96.10
10411;DHT22;5251;52.112;8.606;2024-01-30T01:10:18;7.00;96.10
10411;DHT22;5251;52.112;8.606;2024-01-30T01:12:45;7.00;96.10
10411;DHT22;5251;52.112;8.606;2024-01-30T01:15:10;7.00;96.10
10411;DHT22;5251;52.112;8.606;2024-01-30T01:17:37;6.90;96.10
10411;DHT22;5251;52.112;8.606;2024-01-30T01:20:04;6.90;96.10
10411;DHT22;5251;52.112;8.606;2024-01-30T01:22:30;7.00;96.10
10411;DHT22;5251;52.112;8.606;2024-01-30T01:24:56;6.90;96.10
10411;DHT22;5251;52.112;8.606;2024-01-30T01:27:22;6.90;96.10
10411;DHT22;5251;52.112;8.606;2024-01-30T01:29:47;7.00;96.10
10411;DHT22;5251;52.112;8.606;2024-01-30T01:32:13;6.90;96.00
10411;DHT22;5251;52.112;8.606;2024-01-30T01:34:38;6.90;96.00
10411;DHT22;5251;52.112;8.606;2024-01-30T01:37:04;6.90;96.00
10411;DHT22;5251;52.112;8.606;2024-01-30T01:39:30;6.90;96.00
10411;DHT22;5251;52.112;8.606;2024-01-30T01:41:55;6.90;95.90
10411;DHT22;5251;52.112;8.606;2024-01-30T01:44:21;6.90;95.90
10411;DHT22;5251;52.112;8.606;2024-01-30T01:46:47;6.80;96.00
10411;DHT22;5251;52.112;8.606;2024-01-30T01:49:14;6.80;96.00
10411;DHT22;5251;52.112;8.606;2024-01-30T01:51:40;6.80;96.10
10411;DHT22;5251;52.112;8.606;2024-01-30T01:54:06;6.80;96.10
10411;DHT22;5251;52.112;8.606;2024-01-30T01:56:33;6.80;96.10
10411;DHT22;5251;52.112;8.606;2024-01-30T01:59:06;6.80;96.00
10411;DHT22;5251;52.112;8.606;2024-01-30T02:01:34;6.70;96.00
10411;DHT22;5251;52.112;8.606;2024-01-30T02:04:00;6.70;96.00
10411;DHT22;5251;52.112;8.606;2024-01-30T02:06:27;6.70;96.00
10411;DHT22;5251;52.112;8.606;2024-01-30T02:08:56;6.70;96.00
10411;DHT22;5251;52.112;8.606;2024-01-30T02:11:22;6.70;96.00
10411;DHT22;5251;52.112;8.606;2024-01-30T02:13:49;6.70;96.00
10411;DHT22;5251;52.112;8.606;2024-01-30T02:16:14;6.60;95.90
10411;DHT22;5251;52.112;8.606;2024-01-30T02:18:40;6.60;95.90
10411;DHT22;5251;52.112;8.606;2024-01-30T02:21:11;6.60;95.90
10411;DHT22;5251;52.112;8.606;2024-01-30T02:23:38;6.60;95.90
10411;DHT22;5251;52.112;8.606;2024-01-30T02:26:04;6.60;95.90
10411;DHT22;5251;52.112;8.606;2024-01-30T02:28:30;6.50;95.90
10411;DHT22;5251;52.112;8.606;2024-01-30T02:30:56;6.50;96.10
10411;DHT22;5251;52.112;8.606;2024-01-30T02:33:21;6.50;96.20
10411;DHT22;5251;52.112;8.606;2024-01-30T02:35:48;6.40;96.40
10411;DHT22;5251;52.112;8.606;2024-01-30T02:38:15;6.40;96.50
10411;DHT22;5251;52.112;8.606;2024-01-30T02:40:40;6.40;96.40
10411;DHT22;5251;52.112;8.606;2024-01-30T02:43:06;6.40;96.40
10411;DHT22;5251;52.112;8.606;2024-01-30T02:45:32;6.40;96.50
10411;DHT22;5251;52.112;8.606;2024-01-30T02:47:57;6.40;96.60
10411;DHT22;5251;52.112;8.606;2024-01-30T02:50:23;6.40;96.70
10411;DHT22;5251;52.112;8.606;2024-01-30T02:52:48;6.40;96.80
10411;DHT22;5251;52.112;8.606;2024-01-30T02:55:14;6.40;96.90
10411;DHT22;5251;52.112;8.606;2024-01-30T02:57:42;6.30;96.80
10411;DHT22;5251;52.112;8.606;2024-01-30T03:00:09;6.30;96.80
10411;DHT22;5251;52.112;8.606;2024-01-30T03:02:35;6.30;96.80
10411;DHT22;5251;52.112;8.606;2024-01-30T03:05:01;6.40;96.80
10411;DHT22;5251;52.112;8.606;2024-01-30T03:07:26;6.30;96.80
10411;DHT22;5251;52.112;8.606;2024-01-30T03:09:52;6.30;96.80
10411;DHT22;5251;52.112;8.606;2024-01-30T03:12:18;6.30;96.80
10411;DHT22;5251;52.112;8.606;2024-01-30T03:14:43;6.30;96.80
10411;DHT22;5251;52.112;8.606;2024-01-30T03:17:09;6.30;96.80
10411;DHT22;5251;52.112;8.606;2024-01-30T03:19:35;6.30;96.80
10411;DHT22;5251;52.112;8.606;2024-01-30T03:22:00;6.40;96.90
10411;DHT22;5251;52.112;8.606;2024-01-30T03:24:26;6.40;97.00
10411;DHT22;5251;52.112;8.606;2024-01-30T03:26:51;6.30;97.10
10411;DHT22;5251;52.112;8.606;2024-01-30T03:29:17;6.30;97.10
10411;DHT22;5251;52.112;8.606;2024-01-30T03:31:43;6.30;97.10
10411;DHT22;5251;52.112;8.606;2024-01-30T03:34:08;6.30;97.10
10411;DHT22;5251;52.112;8.606;2024-01-30T03:36:34;6.30;97.10
10411;DHT22;5251;52.112;8.606;2024-01-30T03:39:00;6.30;97.10
10411;DHT22;5251;52.112;8.606;2024-01-30T03:41:26;6.30;97.30
10411;DHT22;5251;52.112;8.606;2024-01-30T03:43:51;6.30;97.40
10411;DHT22;5251;52.112;8.606;2024-01-30T03:46:17;6.20;97.40
10411;DHT22;5251;52.112;8.606;2024-01-30T03:48:43;6.30;97.50
10411;DHT22;5251;52.112;8.606;2024-01-30T03:51:09;6.30;97.50
10411;DHT22;5251;52.112;8.606;2024-01-30T03:53:40;6.30;97.50
10411;DHT22;5251;52.112;8.606;2024-01-30T03:56:06;6.30;97.40
10411;DHT22;5251;52.112;8.606;2024-01-30T03:58:31;6.30;97.50
10411;DHT22;5251;52.112;8.606;2024-01-30T04:00:57;6.30;97.60
10411;DHT22;5251;52.112;8.606;2024-01-30T04:03:22;6.30;97.50
10411;DHT22;5251;52.112;8.606;2024-01-30T04:05:48;6.30;97.50
10411;DHT22;5251;52.112;8.606;2024-01-30T04:08:13;6.40;97.60
10411;DHT22;5251;52.112;8.606;2024-01-30T04:10:39;6.30;97.60
10411;DHT22;5251;52.112;8.606;2024-01-30T04:13:05;6.40;97.60
10411;DHT22;5251;52.112;8.606;2024-01-30T04:15:30;6.30;97.60
10411;DHT22;5251;52.112;8.606;2024-01-30T04:17:59;6.40;97.70
10411;DHT22;5251;52.112;8.606;2024-01-30T04:20:25;6.30;97.60
10411;DHT22;5251;52.112;8.606;2024-01-30T04:22:51;6.30;97.60
10411;DHT22;5251;52.112;8.606;2024-01-30T04:25:16;6.30;97.60
10411;DHT22;5251;52.112;8.606;2024-01-30T04:27:42;6.30;97.40
10411;DHT22;5251;52.112;8.606;2024-01-30T04:30:08;6.30;97.40
10411;DHT22;5251;52.112;8.606;2024-01-30T04:32:35;6.30;97.40
10411;DHT22;5251;52.112;8.606;2024-01-30T04:35:00;6.30;97.40
10411;DHT22;5251;52.112;8.606;2024-01-30T04:37:26;6.30;97.40
10411;DHT22;5251;52.112;8.606;2024-01-30T04:39:52;6.30;97.40
10411;DHT22;5251;52.112;8.606;2024-01-30T04:42:17;6.20;97.30
10411;DHT22;5251;52.112;8.606;2024-01-30T04:44:43;6.20;97.50
10411;DHT22;5251;52.112;8.606;2024-01-30T04:47:08;6.20;97.50
10411;DHT22;5251;52.112;8.606;2024-01-30T04:49:36;6.20;97.60
10411;DHT22;5251;52.112;8.606;2024-01-30T04:52:02;6.20;97.60
10411;DHT22;5251;52.112;8.606;2024-01-30T04:54:27;6.20;97.60
10411;DHT22;5251;52.112;8.606;2024-01-30T04:56:53;6.20;97.60
10411;DHT22;5251;52.112;8.606;2024-01-30T04:59:19;6.20;97.70
10411;DHT22;5251;52.112;8.606;2024-01-30T05:01:44;6.20;97.70
10411;DHT22;5251;52.112;8.606;2024-01-30T05:04:10;6.20;97.80
10411;DHT22;5251;52.112;8.606;2024-01-30T05:06:36;6.20;98.10
10411;DHT22;5251;52.112;8.606;2024-01-30T05:09:02;6.20;97.90
10411;DHT22;5251;52.112;8.606;2024-01-30T05:11:30;6.20;98.00
10411;DHT22;5251;52.112;8.606;2024-01-30T05:13:55;6.20;98.00
10411;DHT22;5251;52.112;8.606;2024-01-30T05:16:21;6.20;98.00
10411;DHT22;5251;52.112;8.606;2024-01-30T05:18:46;6.20;98.00
10411;DHT22;5251;52.112;8.606;2024-01-30T05:21:12;6.20;98.00
10411;DHT22;5251;52.112;8.606;2024-01-30T05:23:38;6.20;98.00
10411;DHT22;5251;52.112;8.606;2024-01-30T05:26:03;6.20;98.00
10411;DHT22;5251;52.112;8.606;2024-01-30T05:28:29;6.20;98.10
10411;DHT22;5251;52.112;8.606;2024-01-30T05:30:56;6.20;98.30
10411;DHT22;5251;52.112;8.606;2024-01-30T05:33:22;6.20;98.30
10411;DHT22;5251;52.112;8.606;2024-01-30T05:35:47;6.20;98.40
10411;DHT22;5251;52.112;8.606;2024-01-30T05:38:15;6.20;98.40
10411;DHT22;5251;52.112;8.606;2024-01-30T05:40:41;6.20;98.40
10411;DHT22;5251;52.112;8.606;2024-01-30T05:43:06;6.30;98.50
10411;DHT22;5251;52.112;8.606;2024-01-30T05:45:33;6.20;98.50
10411;DHT22;5251;52.112;8.606;2024-01-30T05:48:00;6.30;98.60
10411;DHT22;5251;52.112;8.606;2024-01-30T05:50:26;6.40;98.70
10411;DHT22;5251;52.112;8.606;2024-01-30T05:52:52;6.30;99.00
10411;DHT22;5251;52.112;8.606;2024-01-30T05:55:18;6.40;98.70
10411;DHT22;5251;52.112;8.606;2024-01-30T05:57:44;6.40;98.70
10411;DHT22;5251;52.112;8.606;2024-01-30T06:00:09;6.40;98.70
10411;DHT22;5251;52.112;8.606;2024-01-30T06:02:35;6.40;98.70
10411;DHT22;5251;52.112;8.606;2024-01-30T06:05:01;6.40;98.60
10411;DHT22;5251;52.112;8.606;2024-01-30T06:07:27;6.50;98.60
10411;DHT22;5251;52.112;8.606;2024-01-30T06:09:52;6.50;98.60
10411;DHT22;5251;52.112;8.606;2024-01-30T06:12:18;6.50;98.50
10411;DHT22;5251;52.112;8.606;2024-01-30T06:14:43;6.50;98.50
10411;DHT22;5251;52.112;8.606;2024-01-30T06:17:09;6.50;98.50
10411;DHT22;5251;52.112;8.606;2024-01-30T06:19:35;6.60;98.60
10411;DHT22;5251;52.112;8.606;2024-01-30T06:22:00;6.50;98.50
10411;DHT22;5251;52.112;8.606;2024-01-30T06:24:26;6.50;98.50
10411;DHT22;5251;52.112;8.606;2024-01-30T06:26:53;6.50;98.40
10411;DHT22;5251;52.112;8.606;2024-01-30T06:29:18;6.50;98.40
10411;DHT22;5251;52.112;8.606;2024-01-30T06:31:44;6.50;98.30
10411;DHT22;5251;52.112;8.606;2024-01-30T06:34:10;6.50;98.20
10411;DHT22;5251;52.112;8.606;2024-01-30T06:36:37;6.50;98.20
10411;DHT22;5251;52.112;8.606;2024-01-30T06:39:03;6.40;98.10
10411;DHT22;5251;52.112;8.606;2024-01-30T06:41:29;6.50;98.10
10411;DHT22;5251;52.112;8.606;2024-01-30T06:43:55;6.50;98.10
10411;DHT22;5251;52.112;8.606;2024-01-30T06:46:21;6.50;98.10
10411;DHT22;5251;52.112;8.606;2024-01-30T06:48:47;6.50;98.10
10411;DHT22;5251;52.112;8.606;2024-01-30T06:51:12;6.50;98.10
10411;DHT22;5251;52.112;8.606;2024-01-30T06:53:38;6.40;98.10
10411;DHT22;5251;52.112;8.606;2024-01-30T06:56:04;6.40;98.10
10411;DHT22;5251;52.112;8.606;2024-01-30T06:58:30;6.40;98.10
10411;DHT22;5251;52.112;8.606;2024-01-30T07:00:56;6.40;98.10
10411;DHT22;5251;52.112;8.606;2024-01-30T07:03:21;6.40;98.10
10411;DHT22;5251;52.112;8.606;2024-01-30T07:05:47;6.40;98.10
10411;DHT22;5251;52.112;8.606;2024-01-30T07:08:15;6.30;98.10
10411;DHT22;5251;52.112;8.606;2024-01-30T07:10:43;6.40;98.20
10411;DHT22;5251;52.112;8.606;2024-01-30T07:13:08;6.40;98.20
10411;DHT22;5251;52.112;8.606;2024-01-30T07:15:35;6.30;98.20
10411;DHT22;5251;52.112;8.606;2024-01-30T07:18:02;6.40;98.30
10411;DHT22;5251;52.112;8.606;2024-01-30T07:20:28;6.30;98.30
10411;DHT22;5251;52.112;8.606;2024-01-30T07:22:55;6.30;98.40
10411;DHT22;5251;52.112;8.606;2024-01-30T07:25:21;6.40;98.50
10411;DHT22;5251;52.112;8.606;2024-01-30T07:27:47;6.30;98.40
10411;DHT22;5251;52.112;8.606;2024-01-30T07:30:12;6.30;98.40
10411;DHT22;5251;52.112;8.606;2024-01-30T07:32:38;6.40;98.50
10411;DHT22;5251;52.112;8.606;2024-01-30T07:35:04;6.40;98.60
10411;DHT22;5251;52.112;8.606;2024-01-30T07:37:29;6.40;98.60
10411;DHT22;5251;52.112;8.606;2024-01-30T07:39:55;6.40;98.60
10411;DHT22;5251;52.112;8.606;2024-01-30T07:42:21;6.40;98.70
10411;DHT22;5251;52.112;8.606;2024-01-30T07:44:46;6.50;98.80
10411;DHT22;5251;52.112;8.606;2024-01-30T07:47:12;6.40;98.70
10411;DHT22;5251;52.112;8.606;2024-01-30T07:49:37;6.50;98.80
10411;DHT22;5251;52.112;8.606;2024-01-30T07:52:03;6.50;98.90
10411;DHT22;5251;52.112;8.606;2024-01-30T07:54:32;6.50;98.90
10411;DHT22;5251;52.112;8.606;2024-01-30T07:57:00;6.50;98.90
10411;DHT22;5251;52.112;8.606;2024-01-30T07:59:25;6.50;99.00
10411;DHT22;5251;52.112;8.606;2024-01-30T08:01:51;6.60;99.10
10411;DHT22;5251;52.112;8.606;2024-01-30T08:04:16;6.60;99.10
10411;DHT22;5251;52.112;8.606;2024-01-30T08:06:43;6.70;99.10
10411;DHT22;5251;52.112;8.606;2024-01-30T08:09:08;6.70;99.20
10411;DHT22;5251;52.112;8.606;2024-01-30T08:11:34;6.70;99.20
10411;DHT22;5251;52.112;8.606;2024-01-30T08:13:59;6.80;99.20
10411;DHT22;5251;52.112;8.606;2024-01-30T08:16:25;6.80;99.30
10411;DHT22;5251;52.112;8.606;2024-01-30T08:18:51;6.80;99.30
10411;DHT22;5251;52.112;8.606;2024-01-30T08:21:18;6.90;99.40
10411;DHT22;5251;52.112;8.606;2024-01-30T08:23:44;6.90;99.40
10411;DHT22;5251;52.112;8.606;2024-01-30T08:26:09;6.90;99.50
10411;DHT22;5251;52.112;8.606;2024-01-30T08:28:35;7.00;99.50
10411;DHT22;5251;52.112;8.606;2024-01-30T08:31:01;7.10;99.60
10411;DHT22;5251;52.112;8.606;2024-01-30T08:33:26;7.10;99.50
10411;DHT22;5251;52.112;8.606;2024-01-30T08:35:52;7.20;99.60
10411;DHT22;5251;52.112;8.606;2024-01-30T08:38:18;7.20;99.60
10411;DHT22;5251;52.112;8.606;2024-01-30T08:40:43;7.20;99.60
10411;DHT22;5251;52.112;8.606;2024-01-30T08:43:09;7.30;99.60
10411;DHT22;5251;52.112;8.606;2024-01-30T08:45:35;7.40;99.70
10411;DHT22;5251;52.112;8.606;2024-01-30T08:48:01;7.40;99.60
10411;DHT22;5251;52.112;8.606;2024-01-30T08:50:26;7.40;99.70
10411;DHT22;5251;52.112;8.606;2024-01-30T08:52:52;7.50;99.70
10411;DHT22;5251;52.112;8.606;2024-01-30T08:55:18;7.60;99.70
10411;DHT22;5251;52.112;8.606;2024-01-30T08:57:43;7.60;99.70
10411;DHT22;5251;52.112;8.606;2024-01-30T09:00:09;7.70;99.80
10411;DHT22;5251;52.112;8.606;2024-01-30T09:02:35;7.80;99.80
10411;DHT22;5251;52.112;8.606;2024-01-30T09:05:01;7.90;99.80
10411;DHT22;5251;52.112;8.606;2024-01-30T09:07:27;7.90;99.80
10411;DHT22;5251;52.112;8.606;2024-01-30T09:09:52;8.00;99.80
10411;DHT22;5251;52.112;8.606;2024-01-30T09:12:18;8.00;99.80
10411;DHT22;5251;52.112;8.606;2024-01-30T09:14:43;8.10;99.80
10411;DHT22;5251;52.112;8.606;2024-01-30T09:17:09;8.10;99.70
10411;DHT22;5251;52.112;8.606;2024-01-30T09:19:35;8.20;99.80
10411;DHT22;5251;52.112;8.606;2024-01-30T09:22:00;8.20;99.70
10411;DHT22;5251;52.112;8.606;2024-01-30T09:24:26;8.40;99.90
10411;DHT22;5251;52.112;8.606;2024-01-30T09:26:52;8.40;99.90
10411;DHT22;5251;52.112;8.606;2024-01-30T09:29:18;8.50;99.90
10411;DHT22;5251;52.112;8.606;2024-01-30T09:31:45;8.50;99.90
10411;DHT22;5251;52.112;8.606;2024-01-30T09:34:10;8.60;99.90
10411;DHT22;5251;52.112;8.606;2024-01-30T09:36:36;8.70;99.90
10411;DHT22;5251;52.112;8.606;2024-01-30T09:39:01;8.80;99.90
10411;DHT22;5251;52.112;8.606;2024-01-30T09:41:31;8.90;99.90
10411;DHT22;5251;52.112;8.606;2024-01-30T09:43:57;9.00;99.90
10411;DHT22;5251;52.112;8.606;2024-01-30T09:46:27;9.10;99.90
10411;DHT22;5251;52.112;8.606;2024-01-30T09:48:54;9.20;99.90
10411;DHT22;5251;52.112;8.606;2024-01-30T09:51:21;9.30;99.90
10411;DHT22;5251;52.112;8.606;2024-01-30T09:53:48;9.40;99.90
10411;DHT22;5251;52.112;8.606;2024-01-30T09:56:14;9.50;99.90
10411;DHT22;5251;52.112;8.606;2024-01-30T09:58:39;9.60;99.90
10411;DHT22;5251;52.112;8.606;2024-01-30T10:01:05;9.60;99.90
10411;DHT22;5251;52.112;8.606;2024-01-30T10:03:31;9.70;99.90
10411;DHT22;5251;52.112;8.606;2024-01-30T10:05:57;9.80;99.90
10411;DHT22;5251;52.112;8.606;2024-01-30T10:08:23;9.90;99.90
10411;DHT22;5251;52.112;8.606;2024-01-30T10:10:49;10.00;99.60
10411;DHT22;5251;52.112;8.606;2024-01-30T10:13:18;10.10;99.60
10411;DHT22;5251;52.112;8.606;2024-01-30T10:15:44;10.20;99.90
10411;DHT22;5251;52.112;8.606;2024-01-30T10:18:13;10.30;99.90
10411;DHT22;5251;52.112;8.606;2024-01-30T10:20:38;10.40;99.90
10411;DHT22;5251;52.112;8.606;2024-01-30T10:23:04;10.50;99.90
10411;DHT22;5251;52.112;8.606;2024-01-30T10:25:32;10.60;99.90
10411;DHT22;5251;52.112;8.606;2024-01-30T10:28:00;10.70;99.90
10411;DHT22;5251;52.112;8.606;2024-01-30T10:30:27;10.80;99.90
10411;DHT22;5251;52.112;8.606;2024-01-30T10:32:53;10.90;99.90
10411;DHT22;5251;52.112;8.606;2024-01-30T10:35:19;11.10;99.90
10411;DHT22;5251;52.112;8.606;2024-01-30T10:37:47;11.20;99.90
10411;DHT22;5251;52.112;8.606;2024-01-30T10:40:13;11.30;99.90
10411;DHT22;5251;52.112;8.606;2024-01-30T10:42:42;11.50;99.90
10411;DHT22;5251;52.112;8.606;2024-01-30T10:45:10;11.60;99.90
10411;DHT22;5251;52.112;8.606;2024-01-30T10:47:48;11.80;99.90
10411;DHT22;5251;52.112;8.606;2024-01-30T10:50:14;11.90;99.90
10411;DHT22;5251;52.112;8.606;2024-01-30T10:52:40;12.10;99.90
10411;DHT22;5251;52.112;8.606;2024-01-30T10:55:08;12.20;99.90
10411;DHT22;5251;52.112;8.606;2024-01-30T10:57:37;12.30;99.90
10411;DHT22;5251;52.112;8.606;2024-01-30T11:00:06;12.40;99.90
10411;DHT22;5251;52.112;8.606;2024-01-30T11:02:41;12.50;99.90
10411;DHT22;5251;52.112;8.606;2024-01-30T11:05:08;12.60;99.90
10411;DHT22;5251;52.112;8.606;2024-01-30T11:07:34;12.70;99.90
10411;DHT22;5251;52.112;8.606;2024-01-30T11:10:00;12.80;99.90
10411;DHT22;5251;52.112;8.606;2024-01-30T11:12:27;12.90;99.90
10411;DHT22;5251;52.112;8.606;2024-01-30T11:15:12;13.10;99.70
10411;DHT22;5251;52.112;8.606;2024-01-30T11:20:25;13.30;99.40
10411;DHT22;5251;52.112;8.606;2024-01-30T11:22:53;13.40;99.40
10411;DHT22;5251;52.112;8.606;2024-01-30T11:25:22;13.60;99.30
10411;DHT22;5251;52.112;8.606;2024-01-30T11:27:55;13.70;99.20
10411;DHT22;5251;52.112;8.606;2024-01-30T11:32:59;13.90;98.80
10411;DHT22;5251;52.112;8.606;2024-01-30T11:35:24;14.00;98.50
10411;DHT22;5251;52.112;8.606;2024-01-30T11:37:50;14.10;98.20
10411;DHT22;5251;52.112;8.606;2024-01-30T11:40:16;14.20;97.90
10411;DHT22;5251;52.112;8.606;2024-01-30T11:42:42;14.20;97.90
10411;DHT22;5251;52.112;8.606;2024-01-30T11:45:09;14.30;97.60
10411;DHT22;5251;52.112;8.606;2024-01-30T11:47:36;14.40;97.60
10411;DHT22;5251;52.112;8.606;2024-01-30T11:50:04;14.40;97.40
10411;DHT22;5251;52.112;8.606;2024-01-30T11:52:33;14.50;97.20
10411;DHT22;5251;52.112;8.606;2024-01-30T11:54:58;14.50;97.20
10411;DHT22;5251;52.112;8.606;2024-01-30T11:57:26;14.60;97.10
10411;DHT22;5251;52.112;8.606;2024-01-30T11:59:51;14.70;97.10
10411;DHT22;5251;52.112;8.606;2024-01-30T12:02:17;14.70;96.80
10411;DHT22;5251;52.112;8.606;2024-01-30T12:04:43;14.70;96.80
10411;DHT22;5251;52.112;8.606;2024-01-30T12:07:08;14.80;96.80
10411;DHT22;5251;52.112;8.606;2024-01-30T12:09:34;14.90;96.70
10411;DHT22;5251;52.112;8.606;2024-01-30T12:11:59;14.80;96.40
10411;DHT22;5251;52.112;8.606;2024-01-30T12:14:26;14.90;96.60
10411;DHT22;5251;52.112;8.606;2024-01-30T12:16:52;14.90;96.50
10411;DHT22;5251;52.112;8.606;2024-01-30T12:19:24;15.00;96.40
10411;DHT22;5251;52.112;8.606;2024-01-30T12:21:57;15.00;96.10
10411;DHT22;5251;52.112;8.606;2024-01-30T12:24:27;15.00;96.00
10411;DHT22;5251;52.112;8.606;2024-01-30T12:26:59;15.00;96.00
10411;DHT22;5251;52.112;8.606;2024-01-30T12:29:25;15.00;95.70
10411;DHT22;5251;52.112;8.606;2024-01-30T12:31:54;14.90;95.70
10411;DHT22;5251;52.112;8.606;2024-01-30T12:34:20;14.90;95.60
10411;DHT22;5251;52.112;8.606;2024-01-30T12:36:49;14.90;95.50
10411;DHT22;5251;52.112;8.606;2024-01-30T12:39:15;14.90;95.70
10411;DHT22;5251;52.112;8.606;2024-01-30T12:41:41;14.90;95.80
10411;DHT22;5251;52.112;8.606;2024-01-30T12:44:07;14.80;95.80
10411;DHT22;5251;52.112;8.606;2024-01-30T12:46:36;14.80;95.90
10411;DHT22;5251;52.112;8.606;2024-01-30T12:49:02;14.80;95.90
10411;DHT22;5251;52.112;8.606;2024-01-30T12:51:28;14.70;95.70
10411;DHT22;5251;52.112;8.606;2024-01-30T12:53:54;14.80;96.40
10411;DHT22;5251;52.112;8.606;2024-01-30T12:56:20;14.70;96.10
10411;DHT22;5251;52.112;8.606;2024-01-30T12:58:45;14.70;96.10
10411;DHT22;5251;52.112;8.606;2024-01-30T13:01:12;14.70;96.10
10411;DHT22;5251;52.112;8.606;2024-01-30T13:03:37;14.70;96.20
10411;DHT22;5251;52.112;8.606;2024-01-30T13:06:03;14.70;96.30
10411;DHT22;5251;52.112;8.606;2024-01-30T13:08:29;14.70;96.30
10411;DHT22;5251;52.112;8.606;2024-01-30T13:10:54;14.70;96.30
10411;DHT22;5251;52.112;8.606;2024-01-30T13:13:20;14.80;96.30
10411;DHT22;5251;52.112;8.606;2024-01-30T13:15:46;14.80;96.30
10411;DHT22;5251;52.112;8.606;2024-01-30T13:18:11;14.80;96.30
10411;DHT22;5251;52.112;8.606;2024-01-30T13:20:37;14.80;96.40
10411;DHT22;5251;52.112;8.606;2024-01-30T13:23:03;14.80;96.40
10411;DHT22;5251;52.112;8.606;2024-01-30T13:25:28;14.80;96.50
10411;DHT22;5251;52.112;8.606;2024-01-30T13:27:54;14.80;96.60
10411;DHT22;5251;52.112;8.606;2024-01-30T13:30:19;14.80;96.50
10411;DHT22;5251;52.112;8.606;2024-01-30T13:32:45;14.90;96.60
10411;DHT22;5251;52.112;8.606;2024-01-30T13:35:11;14.90;96.60
10411;DHT22;5251;52.112;8.606;2024-01-30T13:37:37;14.90;96.60
10411;DHT22;5251;52.112;8.606;2024-01-30T13:40:05;14.90;96.60
10411;DHT22;5251;52.112;8.606;2024-01-30T13:42:38;15.00;96.70
10411;DHT22;5251;52.112;8.606;2024-01-30T13:45:04;15.00;96.70
10411;DHT22;5251;52.112;8.606;2024-01-30T13:47:30;15.00;96.70
10411;DHT22;5251;52.112;8.606;2024-01-30T13:49:55;15.00;96.70
10411;DHT22;5251;52.112;8.606;2024-01-30T13:52:21;15.10;96.70
10411;DHT22;5251;52.112;8.606;2024-01-30T13:54:47;15.10;96.70
10411;DHT22;5251;52.112;8.606;2024-01-30T13:57:13;15.10;96.70
10411;DHT22;5251;52.112;8.606;2024-01-30T13:59:38;15.20;96.80
10411;DHT22;5251;52.112;8.606;2024-01-30T14:02:04;15.20;96.70
10411;DHT22;5251;52.112;8.606;2024-01-30T14:04:31;15.20;96.70
10411;DHT22;5251;52.112;8.606;2024-01-30T14:06:56;15.20;96.60
10411;DHT22;5251;52.112;8.606;2024-01-30T14:09:22;15.20;96.80
10411;DHT22;5251;52.112;8.606;2024-01-30T14:11:47;15.30;96.80
10411;DHT22;5251;52.112;8.606;2024-01-30T14:14:13;15.30;96.80
10411;DHT22;5251;52.112;8.606;2024-01-30T14:16:39;15.30;96.70
10411;DHT22;5251;52.112;8.606;2024-01-30T14:19:04;15.30;96.60
10411;DHT22;5251;52.112;8.606;2024-01-30T14:21:30;15.40;96.60
10411;DHT22;5251;52.112;8.606;2024-01-30T14:23:56;15.40;96.50
10411;DHT22;5251;52.112;8.606;2024-01-30T14:26:21;15.40;96.60
10411;DHT22;5251;52.112;8.606;2024-01-30T14:28:47;15.40;96.60
10411;DHT22;5251;52.112;8.606;2024-01-30T14:31:12;15.30;96.60
10411;DHT22;5251;52.112;8.606;2024-01-30T14:33:39;15.30;96.60
10411;DHT22;5251;52.112;8.606;2024-01-30T14:36:04;15.30;96.70
10411;DHT22;5251;52.112;8.606;2024-01-30T14:38:30;15.20;96.60
10411;DHT22;5251;52.112;8.606;2024-01-30T14:40:56;15.20;96.80
10411;DHT22;5251;52.112;8.606;2024-01-30T14:43:22;15.20;96.80
10411;DHT22;5251;52.112;8.606;2024-01-30T14:45:47;15.20;96.90
10411;DHT22;5251;52.112;8.606;2024-01-30T14:48:15;15.20;96.90
10411;DHT22;5251;52.112;8.606;2024-01-30T14:50:41;15.10;96.80
10411;DHT22;5251;52.112;8.606;2024-01-30T14:53:06;15.10;96.80
10411;DHT22;5251;52.112;8.606;2024-01-30T14:55:32;15.10;96.80
10411;DHT22;5251;52.112;8.606;2024-01-30T14:57:58;15.10;96.90
10411;DHT22;5251;52.112;8.606;2024-01-30T15:00:24;15.00;96.90
10411;DHT22;5251;52.112;8.606;2024-01-30T15:02:50;15.00;97.00
10411;DHT22;5251;52.112;8.606;2024-01-30T15:05:16;15.00;97.10
10411;DHT22;5251;52.112;8.606;2024-01-30T15:07:41;15.00;96.70
10411;DHT22;5251;52.112;8.606;2024-01-30T15:10:08;14.90;96.70
10411;DHT22;5251;52.112;8.606;2024-01-30T15:12:35;14.90;96.50
10411;DHT22;5251;52.112;8.606;2024-01-30T15:15:00;14.80;96.60
10411;DHT22;5251;52.112;8.606;2024-01-30T15:17:26;14.80;96.60
10411;DHT22;5251;52.112;8.606;2024-01-30T15:19:51;14.80;96.60
10411;DHT22;5251;52.112;8.606;2024-01-30T15:22:17;14.80;96.60
10411;DHT22;5251;52.112;8.606;2024-01-30T15:24:43;14.80;96.60
10411;DHT22;5251;52.112;8.606;2024-01-30T15:27:09;14.80;96.60
10411;DHT22;5251;52.112;8.606;2024-01-30T15:29:34;14.70;96.50
10411;DHT22;5251;52.112;8.606;2024-01-30T15:32:00;14.70;96.70
10411;DHT22;5251;52.112;8.606;2024-01-30T15:34:25;14.70;96.80
10411;DHT22;5251;52.112;8.606;2024-01-30T15:36:51;14.70;96.80
10411;DHT22;5251;52.112;8.606;2024-01-30T15:39:17;14.60;96.80
10411;DHT22;5251;52.112;8.606;2024-01-30T15:41:43;14.60;96.90
10411;DHT22;5251;52.112;8.606;2024-01-30T15:44:09;14.60;96.80
10411;DHT22;5251;52.112;8.606;2024-01-30T15:46:34;14.60;96.80
10411;DHT22;5251;52.112;8.606;2024-01-30T15:49:00;14.60;96.70
10411;DHT22;5251;52.112;8.606;2024-01-30T15:51:26;14.50;96.70
10411;DHT22;5251;52.112;8.606;2024-01-30T15:53:52;14.50;96.70
10411;DHT22;5251;52.112;8.606;2024-01-30T15:56:18;14.50;96.70